Time;durP1;ratioP1;P1;durP2;ratioP2;P2;SDS_P1;SDS_P2;PMS_P1;PMS_P2;Temp;Humidity;BMP_temperature;BMP_pressure;BME280_temperature;BME280_humidity;BME280_pressure;Samples;Min_cycle;Max_cycle;Signal;HPM_P1;HPM_P2
2020/12/06 00:00:13;;;;;;;1.88;1.20;;;22.50;52.40;;;;;;4958809;28;20046;-37
2020/12/06 00:02:40;;;;;;;2.28;1.05;;;22.50;52.80;;;;;;4961864;28;20158;-37
2020/12/06 00:05:11;;;;;;;1.05;0.77;;;22.60;52.90;;;;;;4960027;28;20034;-36
2020/12/06 00:07:39;;;;;;;5.13;1.08;;;22.60;52.90;;;;;;4966719;28;20035;-37
2020/12/06 00:10:08;;;;;;;3.05;1.35;;;22.60;52.90;;;;;;4961015;28;20058;-37
2020/12/06 00:12:39;;;;;;;6.25;1.35;;;22.60;53.00;;;;;;4961283;28;20035;-37
2020/12/06 00:15:09;;;;;;;5.15;1.75;;;22.60;52.90;;;;;;4963908;28;20038;-36
2020/12/06 00:17:36;;;;;;;3.70;1.30;;;22.50;52.90;;;;;;4945223;28;20122;-37
2020/12/06 00:20:07;;;;;;;2.78;1.00;;;22.50;53.00;;;;;;4959727;28;20088;-37
2020/12/06 00:22:34;;;;;;;;;;;22.40;53.00;;;;;;4963027;28;20043;-36
2020/12/06 00:25:02;;;;;;;1.83;0.73;;;22.40;53.30;;;;;;4965552;28;19922;-37
2020/12/06 00:27:35;;;;;;;4.50;1.55;;;22.40;53.40;;;;;;4961786;28;20038;-36
2020/12/06 00:30:05;;;;;;;2.55;1.10;;;22.50;53.70;;;;;;4948085;28;20034;-36
2020/12/06 00:32:32;;;;;;;4.10;1.20;;;22.60;53.70;;;;;;4960882;28;20398;-36
2020/12/06 00:34:59;;;;;;;2.08;1.00;;;22.70;53.50;;;;;;4964972;28;20027;-36
2020/12/06 00:37:26;;;;;;;2.55;1.10;;;22.90;53.40;;;;;;4958060;28;20073;-36
2020/12/06 00:39:53;;;;;;;2.70;1.10;;;23.00;52.90;;;;;;4956332;28;20082;-36
2020/12/06 00:42:20;;;;;;;2.92;1.00;;;23.00;52.70;;;;;;4958306;28;20031;-36
2020/12/06 00:44:47;;;;;;;4.65;1.30;;;23.10;52.60;;;;;;4964389;28;20069;-36
2020/12/06 00:47:14;;;;;;;3.92;1.85;;;23.10;52.50;;;;;;4957853;28;20050;-36
2020/12/06 00:49:41;;;;;;;2.50;1.10;;;23.10;52.40;;;;;;4963537;28;20085;-36
2020/12/06 00:52:08;;;;;;;4.40;1.83;;;23.10;52.40;;;;;;4959751;28;20429;-36
2020/12/06 00:54:35;;;;;;;3.60;1.25;;;23.10;52.10;;;;;;4966624;28;20030;-36
2020/12/06 00:57:02;;;;;;;2.90;1.08;;;23.00;52.20;;;;;;4963508;28;20042;-36
2020/12/06 00:59:29;;;;;;;2.65;0.90;;;23.10;52.30;;;;;;4965715;28;20039;-36
2020/12/06 01:01:56;;;;;;;8.05;1.45;;;23.00;52.30;;;;;;4947368;28;20031;-36
2020/12/06 01:04:23;;;;;;;6.10;1.67;;;23.00;52.50;;;;;;4937936;28;20034;-35
2020/12/06 01:06:50;;;;;;;4.30;1.77;;;23.00;53.00;;;;;;4962768;28;20529;-35
2020/12/06 01:09:17;;;;;;;9.63;2.22;;;23.20;52.90;;;;;;4962042;28;20471;-35
2020/12/06 01:11:49;;;;;;;5.53;2.10;;;23.20;52.90;;;;;;4962500;28;20109;-35
2020/12/06 01:14:15;;;;;;;10.23;3.00;;;23.20;52.60;;;;;;4944162;28;20039;-35
2020/12/06 01:16:42;;;;;;;11.10;3.50;;;23.20;52.60;;;;;;4965403;28;20034;-35
2020/12/06 01:19:10;;;;;;;8.35;2.88;;;23.20;52.70;;;;;;4961507;28;20034;-35
2020/12/06 01:21:37;;;;;;;8.27;3.25;;;23.20;53.20;;;;;;4963646;28;20082;-35
2020/12/06 01:24:04;;;;;;;19.05;6.53;;;23.20;53.00;;;;;;4961427;28;20545;-35
2020/12/06 01:26:31;;;;;;;14.07;5.05;;;23.20;53.20;;;;;;4964576;28;20073;-35
2020/12/06 01:28:58;;;;;;;13.27;4.28;;;23.20;53.40;;;;;;4962894;28;20027;-35
2020/12/06 01:31:25;;;;;;;13.95;4.35;;;23.10;53.50;;;;;;4964600;28;20743;-35
2020/12/06 01:33:52;;;;;;;15.45;4.90;;;23.10;53.80;;;;;;4962261;28;20073;-35
2020/12/06 01:36:19;;;;;;;16.52;4.45;;;23.10;53.90;;;;;;4964956;28;20049;-35
2020/12/06 01:38:46;;;;;;;20.95;6.25;;;23.10;53.90;;;;;;4960280;28;20035;-35
2020/12/06 01:41:17;;;;;;;19.38;5.95;;;23.10;54.40;;;;;;4964957;28;20034;-35
2020/12/06 01:43:52;;;;;;;;;;;23.20;54.10;;;;;;4964324;28;20031;-35
2020/12/06 01:46:20;;;;;;;13.48;4.95;;;23.10;54.30;;;;;;4965589;28;19924;-35
2020/12/06 01:48:47;;;;;;;14.20;4.60;;;23.00;54.30;;;;;;4965632;28;20037;-35
2020/12/06 01:51:15;;;;;;;9.43;3.83;;;23.10;54.40;;;;;;4962917;28;20034;-35
2020/12/06 01:53:42;;;;;;;8.15;3.47;;;23.00;54.40;;;;;;4964974;28;20189;-35
2020/12/06 01:56:09;;;;;;;10.77;4.28;;;23.00;54.50;;;;;;4961915;28;20502;-35
2020/12/06 01:58:37;;;;;;;10.02;4.15;;;23.00;54.60;;;;;;4965637;28;20034;-35
2020/12/06 02:01:04;;;;;;;9.68;3.47;;;23.00;54.50;;;;;;4962372;28;20061;-34
2020/12/06 02:03:31;;;;;;;7.65;3.63;;;23.00;54.50;;;;;;4964787;28;20435;-35
2020/12/06 02:05:58;;;;;;;8.32;3.63;;;23.00;54.50;;;;;;4962325;28;20100;-34
2020/12/06 02:08:25;;;;;;;5.25;2.85;;;23.00;54.60;;;;;;4964930;28;20046;-35
2020/12/06 02:10:52;;;;;;;6.35;2.88;;;23.10;55.10;;;;;;4960407;28;20039;-35
2020/12/06 02:13:21;;;;;;;6.95;2.95;;;23.10;54.50;;;;;;4962793;28;20034;-35
2020/12/06 02:15:49;;;;;;;7.93;3.00;;;23.10;54.30;;;;;;4962556;28;20035;-35
2020/12/06 02:18:16;;;;;;;9.25;3.70;;;23.00;54.30;;;;;;4963816;28;20057;-35
2020/12/06 02:20:43;;;;;;;9.35;2.72;;;23.00;54.20;;;;;;4948138;28;20042;-35
2020/12/06 02:23:11;;;;;;;10.10;2.90;;;23.00;54.30;;;;;;4968600;28;20078;-35
2020/12/06 02:25:39;;;;;;;6.00;2.47;;;23.00;54.40;;;;;;4964502;28;20035;-35
2020/12/06 02:28:07;;;;;;;5.50;2.38;;;23.00;54.30;;;;;;4950181;28;20458;-35
2020/12/06 02:30:36;;;;;;;7.47;2.72;;;23.00;54.10;;;;;;4967168;28;20041;-35
2020/12/06 02:33:05;;;;;;;5.80;2.80;;;23.00;54.40;;;;;;4966721;28;20109;-35
2020/12/06 02:35:32;;;;;;;7.63;3.58;;;23.00;54.20;;;;;;4967785;28;20137;-35
2020/12/06 02:37:59;;;;;;;6.50;2.50;;;23.10;54.20;;;;;;4965816;28;20027;-35
2020/12/06 02:40:26;;;;;;;4.63;3.03;;;23.10;54.00;;;;;;4967382;28;20033;-35
2020/12/06 02:42:53;;;;;;;5.45;2.30;;;23.00;54.10;;;;;;4965056;28;20033;-35
2020/12/06 02:45:20;;;;;;;6.55;3.10;;;23.10;54.10;;;;;;4965203;28;20037;-35
2020/12/06 02:47:47;;;;;;;8.02;2.47;;;23.20;54.00;;;;;;4964088;28;20035;-35
2020/12/06 02:50:14;;;;;;;3.97;2.30;;;23.20;53.90;;;;;;4965062;28;20050;-35
2020/12/06 02:52:41;;;;;;;6.20;1.85;;;23.20;53.90;;;;;;4965301;28;20035;-35
2020/12/06 02:55:08;;;;;;;6.28;2.60;;;23.20;53.80;;;;;;4967053;28;20038;-35
2020/12/06 02:57:35;;;;;;;5.93;2.35;;;23.20;53.80;;;;;;4965322;28;20041;-35
2020/12/06 03:00:03;;;;;;;5.25;2.45;;;23.30;53.80;;;;;;4968033;28;20042;-35
2020/12/06 03:02:30;;;;;;;5.80;2.38;;;23.30;53.80;;;;;;4963227;28;20050;-35
2020/12/06 03:04:57;;;;;;;5.65;2.10;;;23.40;53.60;;;;;;4966271;28;20081;-35
2020/12/06 03:07:24;;;;;;;5.18;2.30;;;23.40;53.40;;;;;;4964209;28;20043;-35
2020/12/06 03:09:51;;;;;;;4.72;2.10;;;23.40;53.50;;;;;;4967465;28;20039;-35
2020/12/06 03:12:18;;;;;;;7.82;2.63;;;23.40;53.10;;;;;;4964804;28;20135;-35
2020/12/06 03:14:45;;;;;;;5.25;2.47;;;23.40;53.20;;;;;;4968827;28;20035;-37
2020/12/06 03:17:12;;;;;;;4.80;1.63;;;23.40;53.30;;;;;;4967498;28;20049;-35
2020/12/06 03:19:39;;;;;;;5.18;2.25;;;23.40;53.30;;;;;;4962336;28;20077;-35
2020/12/06 03:22:06;;;;;;;4.78;1.67;;;23.40;52.90;;;;;;4966384;28;20039;-35
2020/12/06 03:24:33;;;;;;;3.42;1.83;;;23.40;53.20;;;;;;4963403;28;20035;-35
2020/12/06 03:27:00;;;;;;;6.40;2.03;;;23.40;52.90;;;;;;4971010;28;20050;-35
2020/12/06 03:29:27;;;;;;;3.85;1.88;;;23.30;52.90;;;;;;4963188;28;20042;-35
2020/12/06 03:31:54;;;;;;;5.55;1.90;;;23.30;53.20;;;;;;4967265;28;20038;-35
2020/12/06 03:34:21;;;;;;;4.47;1.55;;;23.30;53.30;;;;;;4962467;28;20046;-35
2020/12/06 03:36:48;;;;;;;5.40;2.03;;;23.30;52.90;;;;;;4965197;28;20483;-35
2020/12/06 03:39:15;;;;;;;3.35;1.73;;;23.30;53.10;;;;;;4964712;28;20034;-35
2020/12/06 03:41:46;;;;;;;5.65;1.90;;;23.30;53.20;;;;;;4966414;28;20031;-35
2020/12/06 03:44:13;;;;;;;3.10;1.95;;;23.30;53.40;;;;;;4963236;28;20069;-35
2020/12/06 03:46:40;;;;;;;4.97;2.15;;;23.40;53.40;;;;;;4966183;28;20042;-35
2020/12/06 03:49:10;;;;;;;4.00;1.98;;;23.40;52.80;;;;;;4965719;28;20534;-35
2020/12/06 03:51:37;;;;;;;3.83;1.83;;;23.40;52.90;;;;;;4966366;28;20127;-35
2020/12/06 03:54:04;;;;;;;6.28;1.85;;;23.30;52.70;;;;;;4963808;28;20169;-36
2020/12/06 03:56:31;;;;;;;4.95;1.77;;;23.30;53.00;;;;;;4968044;28;20795;-35
2020/12/06 03:58:58;;;;;;;3.17;1.75;;;23.30;52.80;;;;;;4967123;28;20506;-35
2020/12/06 04:01:25;;;;;;;3.15;1.40;;;23.30;53.10;;;;;;4963693;28;20058;-35
2020/12/06 04:03:53;;;;;;;2.03;1.33;;;23.30;53.10;;;;;;4964985;28;20035;-35
2020/12/06 04:06:20;;;;;;;2.80;1.60;;;23.40;53.20;;;;;;4964674;28;20097;-35
2020/12/06 04:08:47;;;;;;;3.42;1.88;;;23.40;52.90;;;;;;4966102;28;20134;-36
2020/12/06 04:11:14;;;;;;;3.25;1.52;;;23.30;53.00;;;;;;4959970;28;20634;-36
2020/12/06 04:13:41;;;;;;;5.03;2.13;;;23.30;52.90;;;;;;4966924;28;20038;-35
2020/12/06 04:16:08;;;;;;;2.10;1.15;;;23.30;52.70;;;;;;4961900;28;20423;-35
2020/12/06 04:18:35;;;;;;;5.07;1.52;;;23.30;53.00;;;;;;4966662;28;20038;-35
2020/12/06 04:21:02;;;;;;;2.97;1.55;;;23.30;52.90;;;;;;4963775;28;20094;-36
2020/12/06 04:23:29;;;;;;;4.22;1.88;;;23.40;53.00;;;;;;4965445;28;20041;-35
2020/12/06 04:25:56;;;;;;;3.00;1.65;;;23.40;52.80;;;;;;4962435;28;20030;-35
2020/12/06 04:28:23;;;;;;;3.58;1.50;;;23.40;53.00;;;;;;4965034;28;20038;-35
2020/12/06 04:30:50;;;;;;;3.10;1.25;;;23.40;53.00;;;;;;4963511;28;20109;-35
2020/12/06 04:33:17;;;;;;;4.00;1.55;;;23.40;53.00;;;;;;4961725;28;20023;-35
2020/12/06 04:35:44;;;;;;;3.40;1.48;;;23.40;52.80;;;;;;4963296;28;20034;-35
2020/12/06 04:38:11;;;;;;;3.55;1.73;;;23.40;52.80;;;;;;4965252;28;20043;-35
2020/12/06 04:40:38;;;;;;;1.98;1.35;;;23.40;52.90;;;;;;4963584;28;20062;-35
2020/12/06 04:43:06;;;;;;;5.80;1.83;;;23.40;52.90;;;;;;4962985;28;20086;-35
2020/12/06 04:45:33;;;;;;;1.80;1.00;;;23.40;52.90;;;;;;4965528;28;20030;-35
2020/12/06 04:48:06;;;;;;;3.90;1.55;;;23.40;52.80;;;;;;4963093;28;20078;-35
2020/12/06 04:50:37;;;;;;;3.85;1.48;;;23.40;52.90;;;;;;4966889;28;20074;-34
2020/12/06 04:53:06;;;;;;;2.63;1.00;;;23.50;53.10;;;;;;4963381;28;20129;-35
2020/12/06 04:55:36;;;;;;;2.65;1.25;;;23.50;53.00;;;;;;4967664;28;20511;-35
2020/12/06 04:58:06;;;;;;;2.80;1.15;;;23.50;53.00;;;;;;4945487;28;20035;-35
2020/12/06 05:00:37;;;;;;;3.03;1.48;;;23.50;53.00;;;;;;4964859;28;20023;-35
2020/12/06 05:03:09;;;;;;;4.82;1.38;;;23.50;52.80;;;;;;4963239;28;20545;-35
2020/12/06 05:05:40;;;;;;;2.80;1.27;;;23.50;52.90;;;;;;4962945;28;20039;-35
2020/12/06 05:08:12;;;;;;;3.08;1.17;;;23.50;52.80;;;;;;4962575;28;20049;-35
2020/12/06 05:10:47;;;;;;;3.65;1.63;;;23.50;52.80;;;;;;4961935;28;20045;-35
2020/12/06 05:13:17;;;;;;;2.22;1.27;;;23.50;53.00;;;;;;4962634;28;20054;-35
2020/12/06 05:15:45;;;;;;;2.30;1.23;;;23.50;52.80;;;;;;4963533;28;20057;-35
2020/12/06 05:18:16;;;;;;;1.95;1.10;;;23.50;53.10;;;;;;4961664;28;20112;-35
2020/12/06 05:20:43;;;;;;;2.45;1.10;;;23.50;52.80;;;;;;4965388;28;20035;-35
2020/12/06 05:23:12;;;;;;;2.65;1.20;;;23.50;52.80;;;;;;4962657;28;20033;-35
2020/12/06 05:25:39;;;;;;;1.73;1.00;;;23.40;52.70;;;;;;4964702;28;20065;-35
2020/12/06 05:28:06;;;;;;;1.88;1.00;;;23.40;53.00;;;;;;4961428;28;20077;-35
2020/12/06 05:30:33;;;;;;;2.47;1.70;;;23.40;52.90;;;;;;4965789;28;20049;-35
2020/12/06 05:33:00;;;;;;;2.95;1.38;;;23.50;53.20;;;;;;4960290;28;20031;-35
2020/12/06 05:35:28;;;;;;;3.13;1.00;;;23.40;53.00;;;;;;4964307;28;20046;-35
2020/12/06 05:37:55;;;;;;;2.47;1.50;;;23.40;53.10;;;;;;4945576;28;20030;-35
2020/12/06 05:40:22;;;;;;;3.70;0.98;;;23.50;53.10;;;;;;4964214;28;20035;-35
2020/12/06 05:42:50;;;;;;;1.98;1.20;;;23.50;53.00;;;;;;4962079;28;20031;-35
2020/12/06 05:45:19;;;;;;;2.33;1.13;;;23.50;53.10;;;;;;4961423;28;20034;-35
2020/12/06 05:47:47;;;;;;;1.65;1.13;;;23.50;53.10;;;;;;4965427;28;20045;-35
2020/12/06 05:50:14;;;;;;;1.80;1.10;;;23.40;53.00;;;;;;4961052;28;20038;-37
2020/12/06 05:52:41;;;;;;;1.63;0.93;;;23.40;53.10;;;;;;4961035;28;20093;-34
2020/12/06 05:55:08;;;;;;;2.38;1.40;;;23.40;53.00;;;;;;4962826;28;20042;-35
2020/12/06 05:57:35;;;;;;;2.63;1.10;;;23.40;53.10;;;;;;4964960;28;20560;-35
2020/12/06 06:00:03;;;;;;;1.92;1.02;;;23.40;53.00;;;;;;4963051;28;20031;-35
2020/12/06 06:02:31;;;;;;;2.03;1.13;;;23.50;53.20;;;;;;4964931;28;20487;-35
2020/12/06 06:05:03;;;;;;;2.17;0.93;;;23.50;53.00;;;;;;4961176;28;20031;-35
2020/12/06 06:07:32;;;;;;;1.52;0.98;;;23.40;53.10;;;;;;4964092;28;20035;-36
2020/12/06 06:10:06;;;;;;;1.88;0.95;;;23.50;53.40;;;;;;4962169;28;20442;-35
2020/12/06 06:12:36;;;;;;;1.67;0.90;;;23.40;53.00;;;;;;4964245;28;20372;-36
2020/12/06 06:15:04;;;;;;;2.80;1.00;;;23.50;53.20;;;;;;4961034;28;20115;-35
2020/12/06 06:17:33;;;;;;;2.33;1.35;;;23.50;53.20;;;;;;4965001;28;20125;-35
2020/12/06 06:20:00;;;;;;;2.67;1.05;;;23.50;53.20;;;;;;4961433;28;20039;-36
2020/12/06 06:22:38;;;;;;;1.65;0.98;;;23.50;54.00;;;;;;4963913;28;20106;-35
2020/12/06 06:25:06;;;;;;;2.30;1.38;;;23.60;53.10;;;;;;4961487;28;20097;-35
2020/12/06 06:27:41;;;;;;;1.67;0.85;;;23.50;53.10;;;;;;4947980;28;20125;-35
2020/12/06 06:30:12;;;;;;;1.45;0.95;;;23.60;53.00;;;;;;4961147;28;20101;-36
2020/12/06 06:32:39;;;;;;;1.35;0.98;;;23.60;52.90;;;;;;4963561;28;20073;-35
2020/12/06 06:35:08;;;;;;;3.35;1.02;;;23.60;53.10;;;;;;4961193;28;20047;-36
2020/12/06 06:37:37;;;;;;;2.28;1.20;;;23.50;52.70;;;;;;4964085;28;20429;-35
2020/12/06 06:40:07;;;;;;;2.08;1.05;;;23.50;53.10;;;;;;4962469;28;20026;-35
2020/12/06 06:42:37;;;;;;;3.95;1.33;;;23.50;53.00;;;;;;4960083;28;20500;-35
2020/12/06 06:45:09;;;;;;;3.33;0.90;;;23.50;53.10;;;;;;4964005;28;20095;-36
2020/12/06 06:47:39;;;;;;;3.40;0.88;;;23.50;53.30;;;;;;4943630;28;20038;-35
2020/12/06 06:50:08;;;;;;;1.15;0.73;;;23.60;53.00;;;;;;4965252;28;20085;-35
2020/12/06 06:52:38;;;;;;;1.58;0.80;;;23.50;53.30;;;;;;4961836;28;20129;-35
2020/12/06 06:55:06;;;;;;;2.00;1.00;;;23.60;53.00;;;;;;4963020;28;20037;-35
2020/12/06 06:57:33;;;;;;;2.78;1.15;;;23.60;53.20;;;;;;4961809;28;20039;-35
2020/12/06 07:00:05;;;;;;;1.48;1.00;;;23.60;53.10;;;;;;4965608;28;20031;-35
2020/12/06 07:02:42;;;;;;;2.35;1.30;;;23.60;53.30;;;;;;4959806;28;20313;-35
2020/12/06 07:05:12;;;;;;;1.35;0.70;;;23.60;53.10;;;;;;4966971;28;20494;-35
2020/12/06 07:07:51;;;;;;;4.47;0.82;;;23.60;53.20;;;;;;4965246;28;20117;-35
2020/12/06 07:10:20;;;;;;;2.92;1.27;;;23.80;53.20;;;;;;4967443;28;20054;-35
2020/12/06 07:12:47;;;;;;;1.95;0.73;;;23.80;53.20;;;;;;4962196;28;20031;-35
2020/12/06 07:15:16;;;;;;;1.00;0.73;;;23.80;53.00;;;;;;4949752;28;20039;-35
2020/12/06 07:17:44;;;;;;;2.55;1.23;;;23.90;52.80;;;;;;4963566;28;20661;-35
2020/12/06 07:20:14;;;;;;;0.88;0.65;;;23.90;52.60;;;;;;4966170;28;20035;-35
2020/12/06 07:22:41;;;;;;;1.25;1.10;;;23.80;52.40;;;;;;4961355;28;20035;-35
2020/12/06 07:25:10;;;;;;;1.60;1.00;;;23.70;52.50;;;;;;4967196;28;20042;-34
2020/12/06 07:27:38;;;;;;;1.80;1.02;;;23.70;52.50;;;;;;4963467;28;20403;-35
2020/12/06 07:30:08;;;;;;;1.30;0.80;;;23.70;52.90;;;;;;4965258;28;20039;-35
2020/12/06 07:32:36;;;;;;;1.10;0.60;;;23.80;52.90;;;;;;4962733;28;20053;-35
2020/12/06 07:35:05;;;;;;;1.58;0.80;;;23.80;52.70;;;;;;4965809;28;20089;-35
2020/12/06 07:37:32;;;;;;;1.67;0.88;;;23.80;52.70;;;;;;4963968;28;20039;-34
2020/12/06 07:39:59;;;;;;;1.27;0.90;;;23.80;53.40;;;;;;4966185;28;20117;-35
2020/12/06 07:42:28;;;;;;;3.15;1.23;;;23.80;52.70;;;;;;4967159;28;20607;-35
2020/12/06 07:44:57;;;;;;;1.67;0.85;;;23.80;52.80;;;;;;4962105;28;20691;-35
2020/12/06 07:47:25;;;;;;;1.55;1.02;;;23.90;52.70;;;;;;4966493;28;22152;-35
2020/12/06 07:49:57;;;;;;;1.65;0.80;;;23.90;52.70;;;;;;4965002;28;20101;-35
2020/12/06 07:52:37;;;;;;;3.30;0.93;;;23.90;52.60;;;;;;4967293;28;20110;-35
2020/12/06 07:55:09;;;;;;;2.07;0.80;;;24.00;52.40;;;;;;4960424;28;20057;-36
2020/12/06 07:57:39;;;;;;;0.63;0.63;;;24.00;52.30;;;;;;4967227;28;20312;-35
2020/12/06 08:00:11;;;;;;;2.25;1.08;;;24.10;52.20;;;;;;4964038;28;20031;-35
2020/12/06 08:02:53;;;;;;;1.25;0.80;;;24.10;52.20;;;;;;4959425;28;20046;-35
2020/12/06 08:05:20;;;;;;;;;;;24.20;52.00;;;;;;4957340;28;20035;-35
2020/12/06 08:07:55;;;;;;;1.35;1.05;;;24.10;51.90;;;;;;4951021;28;19926;-35
2020/12/06 08:10:24;;;;;;;1.48;0.93;;;24.10;52.10;;;;;;4963769;28;20174;-35
2020/12/06 08:12:54;;;;;;;1.55;0.82;;;24.10;52.00;;;;;;4966200;28;20030;-36
2020/12/06 08:15:25;;;;;;;1.55;1.00;;;24.20;52.10;;;;;;4962579;28;20090;-35
2020/12/06 08:17:53;;;;;;;2.80;1.05;;;24.20;51.90;;;;;;4966131;28;20049;-36
2020/12/06 08:20:27;;;;;;;1.25;0.82;;;24.20;51.60;;;;;;4962252;28;20042;-33
2020/12/06 08:22:59;;;;;;;1.38;0.82;;;24.20;51.90;;;;;;4965717;28;20026;-33
2020/12/06 08:25:31;;;;;;;4.28;1.00;;;24.20;52.10;;;;;;4961362;28;20498;-33
2020/12/06 08:28:00;;;;;;;3.22;1.23;;;24.30;52.60;;;;;;4948055;28;20039;-44
2020/12/06 08:30:31;;;;;;;1.50;0.90;;;24.30;52.00;;;;;;4963531;28;20037;-44
2020/12/06 08:33:00;;;;;;;4.60;1.00;;;24.40;52.70;;;;;;4965888;28;20035;-45
2020/12/06 08:35:48;;;;;;;2.28;0.85;;;24.40;51.90;;;;;;4956864;28;20049;-45
2020/12/06 08:38:35;;;;;;;1.10;0.70;;;24.50;51.90;;;;;;4965588;28;20153;-44
2020/12/06 08:41:09;;;;;;;1.13;0.77;;;24.60;51.90;;;;;;4962456;28;20520;-45
2020/12/06 08:43:43;;;;;;;2.63;1.10;;;24.70;51.90;;;;;;4964460;28;20117;-50
2020/12/06 08:46:11;;;;;;;2.38;0.63;;;24.80;52.00;;;;;;4963031;28;20073;-45
2020/12/06 08:48:38;;;;;;;1.98;0.82;;;24.80;51.80;;;;;;4962133;28;20034;-43
2020/12/06 08:51:05;;;;;;;2.17;0.73;;;24.80;51.50;;;;;;4963053;28;20060;-45
2020/12/06 08:53:45;;;;;;;2.22;0.90;;;24.80;51.80;;;;;;4964409;28;20038;-46
2020/12/06 08:56:32;;;;;;;1.45;0.77;;;24.80;51.60;;;;;;4946469;28;20031;-45
2020/12/06 08:59:06;;;;;;;1.98;0.73;;;24.80;51.80;;;;;;4954687;28;20483;-44
2020/12/06 09:01:45;;;;;;;1.83;0.90;;;24.80;51.90;;;;;;4953269;28;20066;-45
2020/12/06 09:04:13;;;;;;;1.95;1.00;;;24.80;51.90;;;;;;4957134;28;20544;-43
2020/12/06 09:06:40;;;;;;;1.88;1.00;;;24.80;51.80;;;;;;4954934;28;20039;-45
2020/12/06 09:09:08;;;;;;;1.75;0.63;;;24.80;52.10;;;;;;4963298;28;20041;-44
2020/12/06 09:11:35;;;;;;;0.77;0.73;;;24.80;52.00;;;;;;4953596;28;20463;-44
2020/12/06 09:14:03;;;;;;;2.80;1.08;;;24.80;52.10;;;;;;4955539;28;20027;-45
2020/12/06 09:16:30;;;;;;;2.28;0.82;;;24.80;51.90;;;;;;4953203;28;20027;-45
2020/12/06 09:18:58;;;;;;;1.50;0.80;;;24.80;52.10;;;;;;4954014;28;20131;-44
2020/12/06 09:21:25;;;;;;;1.60;0.60;;;24.80;52.30;;;;;;4954338;28;20054;-45
2020/12/06 09:23:52;;;;;;;1.65;0.70;;;24.80;52.30;;;;;;4941900;28;20063;-45
2020/12/06 09:26:19;;;;;;;1.38;0.88;;;24.80;52.10;;;;;;4959334;28;20491;-44
2020/12/06 09:28:46;;;;;;;1.55;0.70;;;24.80;52.10;;;;;;4951299;28;20039;-44
2020/12/06 09:31:13;;;;;;;1.15;0.75;;;24.80;52.20;;;;;;4949593;28;20031;-44
2020/12/06 09:33:40;;;;;;;1.52;0.90;;;24.70;52.30;;;;;;4952640;28;20433;-45
2020/12/06 09:36:07;;;;;;;2.45;0.88;;;24.80;52.30;;;;;;4950948;28;20035;-45
2020/12/06 09:38:35;;;;;;;0.85;0.57;;;24.70;52.20;;;;;;4949020;28;20548;-45
2020/12/06 09:41:02;;;;;;;1.17;0.68;;;24.60;52.40;;;;;;4945530;28;20046;-45
2020/12/06 09:43:29;;;;;;;1.30;0.80;;;24.60;52.30;;;;;;4957819;28;20034;-46
2020/12/06 09:45:55;;;;;;;3.38;1.50;;;24.60;52.30;;;;;;4953078;28;20042;-45
2020/12/06 09:48:24;;;;;;;1.55;0.80;;;24.60;52.40;;;;;;4950284;28;20035;-43
2020/12/06 09:50:52;;;;;;;3.17;1.08;;;24.50;52.50;;;;;;4954676;28;20596;-45
2020/12/06 09:53:19;;;;;;;1.10;0.60;;;24.40;52.60;;;;;;4947629;28;20113;-44
2020/12/06 09:55:46;;;;;;;1.00;0.90;;;24.40;52.90;;;;;;4953911;28;20030;-45
2020/12/06 09:58:13;;;;;;;0.80;0.77;;;24.30;53.10;;;;;;4954632;28;20038;-45
2020/12/06 10:00:42;;;;;;;2.92;1.10;;;24.40;53.50;;;;;;4958835;28;20033;-45
2020/12/06 10:03:09;;;;;;;1.55;1.00;;;24.40;53.30;;;;;;4949911;28;20125;-45
2020/12/06 10:05:36;;;;;;;2.17;0.98;;;24.40;53.40;;;;;;4953083;28;20024;-45
2020/12/06 10:08:03;;;;;;;2.45;0.80;;;24.50;53.40;;;;;;4955377;28;20283;-44
2020/12/06 10:10:30;;;;;;;1.45;0.80;;;24.40;53.50;;;;;;4950705;28;20122;-44
2020/12/06 10:12:57;;;;;;;2.70;0.90;;;24.40;53.60;;;;;;4955356;28;20019;-44
2020/12/06 10:15:24;;;;;;;4.13;0.98;;;24.40;53.60;;;;;;4955089;28;20233;-45
2020/12/06 10:17:51;;;;;;;1.00;0.73;;;24.40;53.60;;;;;;4955637;28;20042;-45
2020/12/06 10:20:19;;;;;;;1.48;0.85;;;24.40;53.50;;;;;;4948199;28;20043;-45
2020/12/06 10:22:46;;;;;;;1.50;0.77;;;24.40;53.50;;;;;;4953102;28;20027;-46
2020/12/06 10:25:14;;;;;;;2.97;1.25;;;24.40;53.40;;;;;;4947223;28;20039;-45
2020/12/06 10:27:41;;;;;;;2.85;0.80;;;24.40;53.50;;;;;;4948295;28;20046;-45
2020/12/06 10:30:08;;;;;;;1.85;0.77;;;24.40;53.50;;;;;;4948541;28;20791;-44
2020/12/06 10:32:35;;;;;;;0.80;0.75;;;24.30;53.40;;;;;;4953842;28;20062;-43
2020/12/06 10:35:02;;;;;;;2.80;1.17;;;24.30;53.40;;;;;;4950473;28;20035;-45
2020/12/06 10:37:29;;;;;;;1.85;0.93;;;24.30;53.40;;;;;;4952784;28;20035;-45
2020/12/06 10:39:56;;;;;;;3.03;1.15;;;24.30;53.60;;;;;;4951151;28;20100;-45
2020/12/06 10:42:23;;;;;;;1.50;0.80;;;24.30;53.30;;;;;;4964390;28;20035;-45
2020/12/06 10:44:50;;;;;;;2.05;0.88;;;24.20;53.30;;;;;;4964583;28;20042;-43
2020/12/06 10:47:20;;;;;;;1.55;0.95;;;24.20;53.30;;;;;;4953764;28;20039;-44
2020/12/06 10:49:47;;;;;;;1.85;0.90;;;24.20;53.60;;;;;;4961461;28;20526;-44
2020/12/06 10:52:15;;;;;;;2.13;0.70;;;24.20;53.60;;;;;;4962023;28;21380;-44
2020/12/06 10:54:42;;;;;;;3.05;0.90;;;24.20;53.50;;;;;;4969053;28;20097;-44
2020/12/06 10:57:09;;;;;;;0.90;0.73;;;24.10;53.40;;;;;;4964763;28;20042;-44
2020/12/06 10:59:36;;;;;;;2.38;1.08;;;24.10;53.40;;;;;;4967831;28;20031;-44
2020/12/06 11:02:03;;;;;;;3.03;1.52;;;24.10;53.30;;;;;;4950419;28;20028;-44
2020/12/06 11:04:31;;;;;;;1.77;1.10;;;24.00;53.40;;;;;;4960169;28;20066;-44
2020/12/06 11:06:59;;;;;;;1.85;0.90;;;24.00;53.50;;;;;;4959006;28;20027;-45
2020/12/06 11:09:27;;;;;;;2.03;0.70;;;24.00;53.50;;;;;;4957250;28;20041;-45
2020/12/06 11:11:54;;;;;;;2.03;0.77;;;24.00;53.60;;;;;;4951733;28;20045;-45
2020/12/06 11:14:21;;;;;;;0.90;0.70;;;24.00;53.60;;;;;;4954800;28;20054;-44
2020/12/06 11:16:52;;;;;;;0.98;0.88;;;24.00;53.40;;;;;;4955782;28;20035;-44
2020/12/06 11:19:19;;;;;;;1.67;0.93;;;23.90;53.50;;;;;;4951643;28;20093;-44
2020/12/06 11:21:55;;;;;;;1.98;0.60;;;23.90;53.30;;;;;;4955487;28;20558;-43
2020/12/06 11:24:22;;;;;;;2.20;0.93;;;23.80;53.40;;;;;;4962617;28;20039;-44
2020/12/06 11:26:49;;;;;;;1.48;0.75;;;23.80;53.60;;;;;;4963307;28;20030;-45
2020/12/06 11:29:16;;;;;;;2.63;0.73;;;23.70;53.50;;;;;;4967035;28;20041;-43
2020/12/06 11:31:45;;;;;;;1.50;0.60;;;23.80;53.60;;;;;;4963915;28;20459;-44
2020/12/06 11:34:15;;;;;;;1.83;0.85;;;23.80;53.50;;;;;;4966907;28;20042;-44
2020/12/06 11:36:42;;;;;;;1.83;0.70;;;23.70;53.50;;;;;;4967127;28;20501;-43
2020/12/06 11:39:09;;;;;;;1.42;0.70;;;23.80;53.40;;;;;;4962511;28;20034;-45
2020/12/06 11:41:36;;;;;;;1.83;0.90;;;23.80;53.10;;;;;;4965108;28;20035;-43
2020/12/06 11:44:03;;;;;;;1.27;0.95;;;23.80;53.00;;;;;;4946752;28;20027;-44
2020/12/06 11:46:30;;;;;;;1.50;0.70;;;23.80;53.10;;;;;;4966282;28;20038;-44
2020/12/06 11:48:57;;;;;;;1.90;0.88;;;23.80;52.90;;;;;;4964169;28;20046;-45
2020/12/06 11:51:24;;;;;;;1.77;1.00;;;23.70;52.80;;;;;;4967571;28;20034;-45
2020/12/06 11:53:51;;;;;;;6.53;1.17;;;23.70;52.60;;;;;;4964355;28;20035;-46
2020/12/06 11:56:18;;;;;;;2.38;0.68;;;23.70;52.70;;;;;;4966184;28;20035;-48
2020/12/06 11:58:46;;;;;;;3.65;0.95;;;23.70;53.00;;;;;;4963891;28;20046;-45
2020/12/06 12:01:16;;;;;;;0.70;0.50;;;23.70;52.80;;;;;;4966311;28;20067;-44
2020/12/06 12:03:43;;;;;;;2.20;1.40;;;23.70;52.70;;;;;;4961542;28;20038;-44
2020/12/06 12:06:10;;;;;;;2.55;0.98;;;23.70;52.60;;;;;;4968040;28;20142;-46
2020/12/06 12:08:37;;;;;;;1.52;1.08;;;23.60;52.50;;;;;;4963580;28;20204;-46
2020/12/06 12:11:10;;;;;;;3.67;1.08;;;23.70;52.50;;;;;;4963958;28;20673;-46
2020/12/06 12:13:41;;;;;;;4.78;1.10;;;23.70;52.40;;;;;;4971607;28;20034;-46
2020/12/06 12:16:09;;;;;;;2.67;0.88;;;23.60;52.20;;;;;;4976018;28;20448;-43
2020/12/06 12:18:36;;;;;;;2.65;0.60;;;23.60;52.00;;;;;;4975092;28;20486;-43
2020/12/06 12:21:03;;;;;;;5.55;0.98;;;23.50;52.30;;;;;;4975175;28;20467;-43
2020/12/06 12:23:31;;;;;;;2.40;1.02;;;23.50;52.30;;;;;;4975206;28;20462;-43
2020/12/06 12:25:59;;;;;;;4.68;0.80;;;23.50;52.50;;;;;;4975202;28;20455;-44
2020/12/06 12:28:26;;;;;;;2.20;0.95;;;23.50;52.50;;;;;;4975021;28;20034;-43
2020/12/06 12:30:53;;;;;;;2.92;0.80;;;23.50;52.30;;;;;;4975293;28;20374;-43
2020/12/06 12:33:20;;;;;;;2.08;0.70;;;23.50;52.30;;;;;;4974966;28;20594;-43
2020/12/06 12:35:49;;;;;;;1.48;0.70;;;23.50;52.10;;;;;;4974822;28;20455;-44
2020/12/06 12:38:18;;;;;;;3.72;0.82;;;23.50;52.30;;;;;;4974819;28;20570;-42
2020/12/06 12:40:45;;;;;;;5.25;0.93;;;23.50;52.40;;;;;;4975107;28;20406;-43
2020/12/06 12:43:13;;;;;;;2.83;0.93;;;23.50;52.40;;;;;;4974768;28;20542;-43
2020/12/06 12:45:41;;;;;;;2.25;0.70;;;23.50;52.30;;;;;;4974700;28;20375;-43
2020/12/06 12:48:08;;;;;;;1.45;0.70;;;23.50;52.30;;;;;;4975269;28;20524;-45
2020/12/06 12:50:36;;;;;;;2.35;0.82;;;23.50;52.40;;;;;;4976264;28;20511;-46
2020/12/06 12:53:04;;;;;;;4.03;0.98;;;23.50;52.40;;;;;;4975932;28;20483;-45